EmailTwitter


Observations de surface / Québec / CYUL (71627)

Régions: Québec | Canada | États-Unis | Europe | France | UK | Ailleurs
Station
Affichage
Infos & localisation pour CYUL (71627) | Aide pour décoder les METARs

Observations prises le 2020-02-25 à 09H00 UTC à MONTREAL INTL A, QB (CYUL)

Etat du ciel: ciel variable.

Température: -1.0 Celsius

Point de rosée: -3.0 Celsius

Humidité relative: 86%

Facteur vent: -4.

Vents: Nord-nord-est à 7 km/h ou 4 noeuds.

Pression au niveau moyen de la mer: 101.34 kilopascals.

Calage altimétrique: 101.32 kilopascals ou 29.92 pouces de mercure.

Visibilité horizontale: 15.00 milles terrestres ou 24.00 kilomètres.

Observation METAR:

CYUL 250900Z 02004KT 15SM SCT170 M01/M03 A2992 RMK AC4 SLP134=